Search for airport 
image banner adimage banner ad
image banner ad

FQCH - Chimoio / National

Located in Chimoio, Mozambique

ICAO - FQCH, IATA - VPY

Data provided by Airmate  

General information

Coordinates: S19°8'59" E33°25'44"
Elevation is 2272 feet MSL.
 
View others Airports in Manica Province

Operational data

Open for public use
Current time UTC:
Current local time:
Weather
METAR: FQCH 222200Z 30008KT 8000 -RA SCT010 BKN015 FEW020CB 21/21 Q1009 RMK CB TO NE
TAF: TAF FQCH 221600Z 2218/2318 28010KT 8000 -RA BKN010 BKN015 FEW020 TX23/2313Z TN20/2303Z BECMG 2300/2302 17014KT 9999 SCT015 BKN018 BECMG 2306/2308 25018KT
View NOTAMs / SUP AIP / TFR affecting this airport [VIEW]
Communications frequencies: [VIEW]

Runways:

RWY identifierQFULength (ft)Width (ft)SurfaceLDA (ft)
017874148ASP
19185°7874148

Airport contact information

Address: Chimoio Mozambique

Satellite view of FQCH